Terminal Aerodrome Forecast
Issued by NWS

Home | Current Version | Previous Version | Text Only | Print | Product List | Glossary On
Versions: 1 2 3 4 5 6 7 8 9 10 11 12 13 14 15
000
FTUS42 TJSJ 282300 RRA
TAFJSJ
TAF
TJSJ 282343Z 2900/2924 10005KT P6SM VCSH SCT030
     FM291400 08012KT P6SM VCSH SCT025
     FM292200 10006KT P6SM SCT030=

USA.gov is the U.S. government's official web portal to all federal, state and local government web resources and services.